Muscat, Oman
Current Conditions -  °F | °C
As of 10:50 AM on Thursday 18 Dec 2014 (Local Time) from OOMS Reporting Station
Scattered Clouds Scattered Clouds  
Wind Chill: 77°   Ceiling: Unl
Heat Index: 79°   Visibility: 6mi
Dew Point: 61°   Wind: 3mph
Humidity: 57%   Direction: NA
Pressure: 30.15"   Gusts: NA
Location:  23.61°N, 58.54°E
Report Text: OOMS 180650Z VRB03KT 9999 SCT025 25/16 Q1021 NOSIG
Loading
Personal Weather Stations






























Interactive Weather Map New forecast layout! Learn more

10-Day Weather Forecast

Advertisements
Track Severe Weather on mobile